sensor_id;sensor_type;location;lat;lon;timestamp;P1;durP1;ratioP1;P2;durP2;ratioP2
70297;SDS011;57702;44.420;20.298;2023-02-18T00:02:07;79.85;;;24.73;;
70297;SDS011;57702;44.420;20.298;2023-02-18T00:04:34;65.68;;;21.05;;
70297;SDS011;57702;44.420;20.298;2023-02-18T00:07:00;64.07;;;21.33;;
70297;SDS011;57702;44.420;20.298;2023-02-18T00:09:27;76.55;;;22.77;;
70297;SDS011;57702;44.420;20.298;2023-02-18T00:11:53;90.95;;;28.48;;
70297;SDS011;57702;44.420;20.298;2023-02-18T00:14:19;70.22;;;26.13;;
70297;SDS011;57702;44.420;20.298;2023-02-18T00:16:46;57.92;;;21.63;;
70297;SDS011;57702;44.420;20.298;2023-02-18T00:19:16;64.13;;;27.48;;
70297;SDS011;57702;44.420;20.298;2023-02-18T00:21:43;55.10;;;20.05;;
70297;SDS011;57702;44.420;20.298;2023-02-18T00:24:10;63.80;;;22.58;;
70297;SDS011;57702;44.420;20.298;2023-02-18T00:26:36;26.92;;;13.52;;
70297;SDS011;57702;44.420;20.298;2023-02-18T00:29:03;34.35;;;16.20;;
70297;SDS011;57702;44.420;20.298;2023-02-18T00:31:31;52.33;;;20.30;;
70297;SDS011;57702;44.420;20.298;2023-02-18T00:33:58;106.13;;;29.73;;
70297;SDS011;57702;44.420;20.298;2023-02-18T00:36:24;59.30;;;26.23;;
70297;SDS011;57702;44.420;20.298;2023-02-18T00:38:52;61.47;;;24.67;;
70297;SDS011;57702;44.420;20.298;2023-02-18T00:41:19;61.90;;;19.90;;
70297;SDS011;57702;44.420;20.298;2023-02-18T00:43:45;62.72;;;24.10;;
70297;SDS011;57702;44.420;20.298;2023-02-18T00:46:12;47.67;;;11.40;;
70297;SDS011;57702;44.420;20.298;2023-02-18T00:48:38;67.75;;;14.40;;
70297;SDS011;57702;44.420;20.298;2023-02-18T00:51:05;78.60;;;17.27;;
70297;SDS011;57702;44.420;20.298;2023-02-18T00:53:31;45.63;;;17.63;;
70297;SDS011;57702;44.420;20.298;2023-02-18T00:55:59;79.10;;;17.17;;
70297;SDS011;57702;44.420;20.298;2023-02-18T00:58:26;51.08;;;19.67;;
70297;SDS011;57702;44.420;20.298;2023-02-18T01:00:53;67.75;;;19.35;;
70297;SDS011;57702;44.420;20.298;2023-02-18T01:03:19;41.05;;;16.15;;
70297;SDS011;57702;44.420;20.298;2023-02-18T01:05:46;55.42;;;17.35;;
70297;SDS011;57702;44.420;20.298;2023-02-18T01:08:14;75.03;;;20.00;;
70297;SDS011;57702;44.420;20.298;2023-02-18T01:10:41;51.25;;;16.70;;
70297;SDS011;57702;44.420;20.298;2023-02-18T01:13:09;59.22;;;18.08;;
70297;SDS011;57702;44.420;20.298;2023-02-18T01:15:36;61.97;;;18.73;;
70297;SDS011;57702;44.420;20.298;2023-02-18T01:18:03;51.88;;;20.02;;
70297;SDS011;57702;44.420;20.298;2023-02-18T01:20:29;53.75;;;16.77;;
70297;SDS011;57702;44.420;20.298;2023-02-18T01:22:55;35.70;;;16.58;;
70297;SDS011;57702;44.420;20.298;2023-02-18T01:25:22;50.33;;;14.60;;
70297;SDS011;57702;44.420;20.298;2023-02-18T01:27:48;59.90;;;21.10;;
70297;SDS011;57702;44.420;20.298;2023-02-18T01:30:15;75.85;;;32.90;;
70297;SDS011;57702;44.420;20.298;2023-02-18T01:32:41;112.78;;;33.22;;
70297;SDS011;57702;44.420;20.298;2023-02-18T01:35:10;84.63;;;31.40;;
70297;SDS011;57702;44.420;20.298;2023-02-18T01:37:37;73.75;;;26.55;;
70297;SDS011;57702;44.420;20.298;2023-02-18T01:40:04;57.05;;;18.85;;
70297;SDS011;57702;44.420;20.298;2023-02-18T01:42:30;38.72;;;19.80;;
70297;SDS011;57702;44.420;20.298;2023-02-18T01:47:41;36.85;;;17.77;;
70297;SDS011;57702;44.420;20.298;2023-02-18T01:50:07;38.58;;;17.85;;
70297;SDS011;57702;44.420;20.298;2023-02-18T01:52:34;45.33;;;17.58;;
70297;SDS011;57702;44.420;20.298;2023-02-18T01:55:00;90.03;;;28.08;;
70297;SDS011;57702;44.420;20.298;2023-02-18T01:57:28;59.00;;;16.75;;
70297;SDS011;57702;44.420;20.298;2023-02-18T01:59:56;31.77;;;12.82;;
70297;SDS011;57702;44.420;20.298;2023-02-18T02:02:24;44.70;;;15.63;;
70297;SDS011;57702;44.420;20.298;2023-02-18T02:04:51;76.03;;;18.55;;
70297;SDS011;57702;44.420;20.298;2023-02-18T02:07:18;90.18;;;20.70;;
70297;SDS011;57702;44.420;20.298;2023-02-18T02:09:44;60.35;;;19.13;;
70297;SDS011;57702;44.420;20.298;2023-02-18T02:15:13;115.13;;;21.92;;
70297;SDS011;57702;44.420;20.298;2023-02-18T02:17:46;57.78;;;21.80;;
70297;SDS011;57702;44.420;20.298;2023-02-18T02:39:16;43.95;;;20.13;;
70297;SDS011;57702;44.420;20.298;2023-02-18T02:44:18;55.90;;;19.77;;
70297;SDS011;57702;44.420;20.298;2023-02-18T02:46:46;77.68;;;30.33;;
70297;SDS011;57702;44.420;20.298;2023-02-18T02:54:15;141.40;;;32.45;;
70297;SDS011;57702;44.420;20.298;2023-02-18T02:56:42;119.43;;;36.72;;
70297;SDS011;57702;44.420;20.298;2023-02-18T02:59:11;86.20;;;32.70;;
70297;SDS011;57702;44.420;20.298;2023-02-18T03:09:59;62.63;;;31.50;;
70297;SDS011;57702;44.420;20.298;2023-02-18T03:14:26;49.95;;;21.48;;
70297;SDS011;57702;44.420;20.298;2023-02-18T03:16:57;70.70;;;25.60;;
70297;SDS011;57702;44.420;20.298;2023-02-18T03:22:02;49.03;;;17.80;;
70297;SDS011;57702;44.420;20.298;2023-02-18T03:24:32;46.20;;;20.10;;
70297;SDS011;57702;44.420;20.298;2023-02-18T03:27:03;64.88;;;20.05;;
70297;SDS011;57702;44.420;20.298;2023-02-18T03:29:31;55.23;;;20.13;;
70297;SDS011;57702;44.420;20.298;2023-02-18T03:31:59;59.45;;;21.60;;
70297;SDS011;57702;44.420;20.298;2023-02-18T03:34:31;50.03;;;18.17;;
70297;SDS011;57702;44.420;20.298;2023-02-18T03:36:59;45.10;;;18.95;;
70297;SDS011;57702;44.420;20.298;2023-02-18T03:39:26;35.67;;;14.73;;
70297;SDS011;57702;44.420;20.298;2023-02-18T03:41:53;54.33;;;14.15;;
70297;SDS011;57702;44.420;20.298;2023-02-18T03:44:19;59.38;;;20.77;;
70297;SDS011;57702;44.420;20.298;2023-02-18T03:46:46;98.15;;;19.00;;
70297;SDS011;57702;44.420;20.298;2023-02-18T03:49:12;49.55;;;17.02;;
70297;SDS011;57702;44.420;20.298;2023-02-18T03:51:39;59.22;;;17.48;;
70297;SDS011;57702;44.420;20.298;2023-02-18T03:54:06;41.60;;;16.50;;
70297;SDS011;57702;44.420;20.298;2023-02-18T03:56:33;32.53;;;14.52;;
70297;SDS011;57702;44.420;20.298;2023-02-18T03:58:59;42.90;;;17.13;;
70297;SDS011;57702;44.420;20.298;2023-02-18T04:01:26;41.90;;;19.45;;
70297;SDS011;57702;44.420;20.298;2023-02-18T04:03:52;56.92;;;22.67;;
70297;SDS011;57702;44.420;20.298;2023-02-18T04:06:20;38.85;;;15.75;;
70297;SDS011;57702;44.420;20.298;2023-02-18T04:08:46;38.25;;;16.60;;
70297;SDS011;57702;44.420;20.298;2023-02-18T04:11:12;38.15;;;14.10;;
70297;SDS011;57702;44.420;20.298;2023-02-18T04:13:38;43.85;;;17.13;;
70297;SDS011;57702;44.420;20.298;2023-02-18T04:16:05;35.80;;;15.00;;
70297;SDS011;57702;44.420;20.298;2023-02-18T04:18:31;53.95;;;19.92;;
70297;SDS011;57702;44.420;20.298;2023-02-18T04:20:57;28.45;;;11.38;;
70297;SDS011;57702;44.420;20.298;2023-02-18T04:23:23;43.30;;;16.50;;
70297;SDS011;57702;44.420;20.298;2023-02-18T04:25:50;22.48;;;12.18;;
70297;SDS011;57702;44.420;20.298;2023-02-18T04:28:16;33.95;;;12.68;;
70297;SDS011;57702;44.420;20.298;2023-02-18T04:30:43;37.90;;;12.95;;
70297;SDS011;57702;44.420;20.298;2023-02-18T04:33:09;32.42;;;12.38;;
70297;SDS011;57702;44.420;20.298;2023-02-18T04:35:35;40.72;;;13.15;;
70297;SDS011;57702;44.420;20.298;2023-02-18T04:38:04;40.88;;;12.68;;
70297;SDS011;57702;44.420;20.298;2023-02-18T04:40:31;48.97;;;15.35;;
70297;SDS011;57702;44.420;20.298;2023-02-18T04:42:57;33.28;;;10.45;;
70297;SDS011;57702;44.420;20.298;2023-02-18T04:45:24;38.53;;;13.65;;
70297;SDS011;57702;44.420;20.298;2023-02-18T04:47:50;25.55;;;9.95;;
70297;SDS011;57702;44.420;20.298;2023-02-18T04:50:16;17.33;;;7.38;;
70297;SDS011;57702;44.420;20.298;2023-02-18T04:52:42;42.97;;;16.67;;
70297;SDS011;57702;44.420;20.298;2023-02-18T04:55:09;49.92;;;17.00;;
70297;SDS011;57702;44.420;20.298;2023-02-18T04:57:35;56.28;;;20.88;;
70297;SDS011;57702;44.420;20.298;2023-02-18T05:00:03;70.72;;;17.90;;
70297;SDS011;57702;44.420;20.298;2023-02-18T05:02:30;40.35;;;21.27;;
70297;SDS011;57702;44.420;20.298;2023-02-18T05:04:57;39.55;;;17.42;;
70297;SDS011;57702;44.420;20.298;2023-02-18T05:07:23;54.05;;;17.80;;
70297;SDS011;57702;44.420;20.298;2023-02-18T05:09:49;34.95;;;13.00;;
70297;SDS011;57702;44.420;20.298;2023-02-18T05:12:15;49.45;;;16.48;;
70297;SDS011;57702;44.420;20.298;2023-02-18T05:14:42;42.42;;;14.77;;
70297;SDS011;57702;44.420;20.298;2023-02-18T05:17:08;39.47;;;12.60;;
70297;SDS011;57702;44.420;20.298;2023-02-18T05:19:34;32.58;;;13.75;;
70297;SDS011;57702;44.420;20.298;2023-02-18T05:22:00;35.05;;;13.27;;
70297;SDS011;57702;44.420;20.298;2023-02-18T05:24:26;15.55;;;8.43;;
70297;SDS011;57702;44.420;20.298;2023-02-18T05:26:53;28.95;;;12.45;;
70297;SDS011;57702;44.420;20.298;2023-02-18T05:29:19;36.50;;;11.20;;
70297;SDS011;57702;44.420;20.298;2023-02-18T05:31:45;29.05;;;10.45;;
70297;SDS011;57702;44.420;20.298;2023-02-18T05:34:11;32.97;;;11.80;;
70297;SDS011;57702;44.420;20.298;2023-02-18T05:36:37;28.13;;;12.30;;
70297;SDS011;57702;44.420;20.298;2023-02-18T05:39:04;37.40;;;9.85;;
70297;SDS011;57702;44.420;20.298;2023-02-18T05:41:30;19.02;;;11.18;;
70297;SDS011;57702;44.420;20.298;2023-02-18T05:43:56;18.85;;;11.05;;
70297;SDS011;57702;44.420;20.298;2023-02-18T05:46:41;43.75;;;12.48;;
70297;SDS011;57702;44.420;20.298;2023-02-18T05:49:07;33.53;;;9.30;;
70297;SDS011;57702;44.420;20.298;2023-02-18T05:51:33;36.03;;;11.27;;
70297;SDS011;57702;44.420;20.298;2023-02-18T05:53:59;29.20;;;12.77;;
70297;SDS011;57702;44.420;20.298;2023-02-18T05:56:25;24.10;;;12.88;;
70297;SDS011;57702;44.420;20.298;2023-02-18T05:58:52;42.05;;;12.52;;
70297;SDS011;57702;44.420;20.298;2023-02-18T06:01:18;46.00;;;16.83;;
70297;SDS011;57702;44.420;20.298;2023-02-18T06:03:44;77.65;;;21.85;;
70297;SDS011;57702;44.420;20.298;2023-02-18T06:06:10;53.72;;;16.60;;
70297;SDS011;57702;44.420;20.298;2023-02-18T06:08:37;64.40;;;19.90;;
70297;SDS011;57702;44.420;20.298;2023-02-18T06:11:03;60.17;;;21.70;;
70297;SDS011;57702;44.420;20.298;2023-02-18T06:13:29;77.80;;;26.63;;
70297;SDS011;57702;44.420;20.298;2023-02-18T06:15:56;56.78;;;16.75;;
70297;SDS011;57702;44.420;20.298;2023-02-18T06:18:22;72.28;;;21.17;;
70297;SDS011;57702;44.420;20.298;2023-02-18T06:20:49;66.68;;;18.20;;
70297;SDS011;57702;44.420;20.298;2023-02-18T06:23:15;38.53;;;13.57;;
70297;SDS011;57702;44.420;20.298;2023-02-18T06:25:42;34.28;;;14.80;;
70297;SDS011;57702;44.420;20.298;2023-02-18T06:28:08;30.02;;;13.15;;
70297;SDS011;57702;44.420;20.298;2023-02-18T06:30:34;25.48;;;15.23;;
70297;SDS011;57702;44.420;20.298;2023-02-18T06:33:00;65.03;;;17.67;;
70297;SDS011;57702;44.420;20.298;2023-02-18T06:35:29;52.47;;;18.52;;
70297;SDS011;57702;44.420;20.298;2023-02-18T06:37:55;59.97;;;16.60;;
70297;SDS011;57702;44.420;20.298;2023-02-18T06:40:22;35.67;;;12.65;;
70297;SDS011;57702;44.420;20.298;2023-02-18T06:42:48;26.38;;;10.55;;
70297;SDS011;57702;44.420;20.298;2023-02-18T06:45:14;28.05;;;12.45;;
70297;SDS011;57702;44.420;20.298;2023-02-18T06:47:40;54.55;;;11.85;;
70297;SDS011;57702;44.420;20.298;2023-02-18T06:50:06;47.40;;;11.50;;
70297;SDS011;57702;44.420;20.298;2023-02-18T06:52:33;41.08;;;10.38;;
70297;SDS011;57702;44.420;20.298;2023-02-18T06:55:03;25.95;;;13.00;;
70297;SDS011;57702;44.420;20.298;2023-02-18T06:57:29;61.70;;;15.07;;
70297;SDS011;57702;44.420;20.298;2023-02-18T06:59:55;46.78;;;14.25;;
70297;SDS011;57702;44.420;20.298;2023-02-18T07:02:22;42.78;;;12.98;;
70297;SDS011;57702;44.420;20.298;2023-02-18T07:04:48;28.30;;;11.70;;
70297;SDS011;57702;44.420;20.298;2023-02-18T07:07:14;19.70;;;12.27;;
70297;SDS011;57702;44.420;20.298;2023-02-18T07:09:40;37.47;;;13.68;;
70297;SDS011;57702;44.420;20.298;2023-02-18T07:12:07;17.85;;;9.75;;
70297;SDS011;57702;44.420;20.298;2023-02-18T07:14:33;34.50;;;13.77;;
70297;SDS011;57702;44.420;20.298;2023-02-18T07:17:00;19.10;;;9.80;;
70297;SDS011;57702;44.420;20.298;2023-02-18T07:19:26;15.63;;;9.77;;
70297;SDS011;57702;44.420;20.298;2023-02-18T07:21:52;26.27;;;10.75;;
70297;SDS011;57702;44.420;20.298;2023-02-18T07:24:21;26.55;;;10.88;;
70297;SDS011;57702;44.420;20.298;2023-02-18T07:26:48;25.70;;;9.02;;
70297;SDS011;57702;44.420;20.298;2023-02-18T07:29:14;26.77;;;10.07;;
70297;SDS011;57702;44.420;20.298;2023-02-18T07:31:40;29.70;;;9.10;;
70297;SDS011;57702;44.420;20.298;2023-02-18T07:34:06;41.88;;;11.45;;
70297;SDS011;57702;44.420;20.298;2023-02-18T07:36:33;30.85;;;13.63;;
70297;SDS011;57702;44.420;20.298;2023-02-18T07:39:00;26.77;;;12.27;;
70297;SDS011;57702;44.420;20.298;2023-02-18T07:41:26;25.52;;;11.32;;
70297;SDS011;57702;44.420;20.298;2023-02-18T07:43:52;64.97;;;15.75;;
70297;SDS011;57702;44.420;20.298;2023-02-18T07:46:19;66.00;;;15.52;;
70297;SDS011;57702;44.420;20.298;2023-02-18T07:48:45;36.75;;;14.57;;
70297;SDS011;57702;44.420;20.298;2023-02-18T07:51:11;30.50;;;11.48;;
70297;SDS011;57702;44.420;20.298;2023-02-18T07:53:38;34.10;;;13.60;;
70297;SDS011;57702;44.420;20.298;2023-02-18T07:56:05;49.88;;;18.00;;
70297;SDS011;57702;44.420;20.298;2023-02-18T07:58:32;53.65;;;16.63;;
70297;SDS011;57702;44.420;20.298;2023-02-18T08:00:59;79.22;;;20.38;;
70297;SDS011;57702;44.420;20.298;2023-02-18T08:03:27;53.20;;;18.77;;
70297;SDS011;57702;44.420;20.298;2023-02-18T08:05:53;48.70;;;20.15;;
70297;SDS011;57702;44.420;20.298;2023-02-18T08:08:21;45.63;;;16.08;;
70297;SDS011;57702;44.420;20.298;2023-02-18T08:10:48;32.53;;;15.30;;
70297;SDS011;57702;44.420;20.298;2023-02-18T08:13:14;30.65;;;9.63;;
70297;SDS011;57702;44.420;20.298;2023-02-18T08:15:42;27.25;;;12.25;;
70297;SDS011;57702;44.420;20.298;2023-02-18T08:18:17;28.42;;;12.45;;
70297;SDS011;57702;44.420;20.298;2023-02-18T08:20:44;28.02;;;12.13;;
70297;SDS011;57702;44.420;20.298;2023-02-18T08:23:14;24.35;;;7.85;;
70297;SDS011;57702;44.420;20.298;2023-02-18T08:25:44;18.58;;;7.88;;
70297;SDS011;57702;44.420;20.298;2023-02-18T08:28:11;17.05;;;9.23;;
70297;SDS011;57702;44.420;20.298;2023-02-18T08:30:37;16.88;;;8.13;;
70297;SDS011;57702;44.420;20.298;2023-02-18T08:33:03;49.17;;;12.75;;
70297;SDS011;57702;44.420;20.298;2023-02-18T08:35:30;41.63;;;12.13;;
70297;SDS011;57702;44.420;20.298;2023-02-18T08:37:56;53.40;;;14.70;;
70297;SDS011;57702;44.420;20.298;2023-02-18T08:40:22;60.63;;;15.93;;
70297;SDS011;57702;44.420;20.298;2023-02-18T08:42:48;41.00;;;15.57;;
70297;SDS011;57702;44.420;20.298;2023-02-18T08:45:15;54.85;;;17.85;;
70297;SDS011;57702;44.420;20.298;2023-02-18T08:47:41;36.38;;;12.88;;
70297;SDS011;57702;44.420;20.298;2023-02-18T08:50:07;28.23;;;11.55;;
70297;SDS011;57702;44.420;20.298;2023-02-18T08:52:34;34.55;;;11.60;;
70297;SDS011;57702;44.420;20.298;2023-02-18T08:55:00;41.33;;;9.73;;
70297;SDS011;57702;44.420;20.298;2023-02-18T08:57:27;70.72;;;19.48;;
70297;SDS011;57702;44.420;20.298;2023-02-18T08:59:53;65.10;;;25.48;;
70297;SDS011;57702;44.420;20.298;2023-02-18T09:02:19;76.40;;;26.95;;
70297;SDS011;57702;44.420;20.298;2023-02-18T09:04:46;53.05;;;23.65;;
70297;SDS011;57702;44.420;20.298;2023-02-18T09:07:12;90.20;;;29.20;;
70297;SDS011;57702;44.420;20.298;2023-02-18T09:09:39;72.95;;;28.85;;
70297;SDS011;57702;44.420;20.298;2023-02-18T09:12:06;74.47;;;26.25;;
70297;SDS011;57702;44.420;20.298;2023-02-18T09:14:32;73.28;;;26.55;;
70297;SDS011;57702;44.420;20.298;2023-02-18T09:16:58;53.58;;;21.65;;
70297;SDS011;57702;44.420;20.298;2023-02-18T09:19:25;57.35;;;22.70;;
70297;SDS011;57702;44.420;20.298;2023-02-18T09:21:51;44.25;;;15.25;;
70297;SDS011;57702;44.420;20.298;2023-02-18T09:24:20;36.40;;;13.45;;
70297;SDS011;57702;44.420;20.298;2023-02-18T09:26:48;42.60;;;14.57;;
70297;SDS011;57702;44.420;20.298;2023-02-18T09:29:15;26.02;;;11.07;;
70297;SDS011;57702;44.420;20.298;2023-02-18T09:31:42;32.75;;;10.43;;
70297;SDS011;57702;44.420;20.298;2023-02-18T09:34:08;38.05;;;10.27;;
70297;SDS011;57702;44.420;20.298;2023-02-18T09:36:34;37.30;;;11.10;;
70297;SDS011;57702;44.420;20.298;2023-02-18T09:39:01;19.70;;;10.43;;
70297;SDS011;57702;44.420;20.298;2023-02-18T09:41:36;33.88;;;12.38;;
70297;SDS011;57702;44.420;20.298;2023-02-18T09:44:08;42.40;;;8.93;;
70297;SDS011;57702;44.420;20.298;2023-02-18T09:46:38;23.40;;;8.90;;
70297;SDS011;57702;44.420;20.298;2023-02-18T09:49:06;35.25;;;10.32;;
70297;SDS011;57702;44.420;20.298;2023-02-18T09:51:37;46.30;;;12.80;;
70297;SDS011;57702;44.420;20.298;2023-02-18T09:54:03;35.60;;;12.32;;
70297;SDS011;57702;44.420;20.298;2023-02-18T09:56:32;20.13;;;7.22;;
70297;SDS011;57702;44.420;20.298;2023-02-18T09:59:03;23.10;;;8.25;;
70297;SDS011;57702;44.420;20.298;2023-02-18T10:01:33;5.15;;;3.75;;
70297;SDS011;57702;44.420;20.298;2023-02-18T10:06:48;8.25;;;4.65;;
70297;SDS011;57702;44.420;20.298;2023-02-18T10:11:47;4.15;;;2.05;;
70297;SDS011;57702;44.420;20.298;2023-02-18T10:14:13;5.63;;;2.75;;
70297;SDS011;57702;44.420;20.298;2023-02-18T10:16:41;6.25;;;3.20;;
70297;SDS011;57702;44.420;20.298;2023-02-18T10:21:43;5.93;;;3.75;;
70297;SDS011;57702;44.420;20.298;2023-02-18T10:26:42;17.92;;;4.75;;
70297;SDS011;57702;44.420;20.298;2023-02-18T10:29:13;18.08;;;5.35;;
70297;SDS011;57702;44.420;20.298;2023-02-18T10:31:41;15.03;;;4.80;;
70297;SDS011;57702;44.420;20.298;2023-02-18T10:36:45;9.23;;;4.05;;
70297;SDS011;57702;44.420;20.298;2023-02-18T10:41:56;10.02;;;4.07;;
70297;SDS011;57702;44.420;20.298;2023-02-18T10:44:42;3.25;;;2.15;;
70297;SDS011;57702;44.420;20.298;2023-02-18T10:49:59;8.18;;;2.03;;
70297;SDS011;57702;44.420;20.298;2023-02-18T10:52:27;6.35;;;2.88;;
70297;SDS011;57702;44.420;20.298;2023-02-18T10:55:02;4.72;;;2.22;;
70297;SDS011;57702;44.420;20.298;2023-02-18T10:57:29;4.60;;;2.58;;
70297;SDS011;57702;44.420;20.298;2023-02-18T10:59:58;5.35;;;1.90;;
70297;SDS011;57702;44.420;20.298;2023-02-18T11:02:26;4.10;;;2.55;;
70297;SDS011;57702;44.420;20.298;2023-02-18T11:04:56;3.70;;;2.15;;
70297;SDS011;57702;44.420;20.298;2023-02-18T11:07:30;6.10;;;2.33;;
70297;SDS011;57702;44.420;20.298;2023-02-18T11:09:57;10.23;;;3.83;;
70297;SDS011;57702;44.420;20.298;2023-02-18T11:12:26;1.30;;;1.20;;
70297;SDS011;57702;44.420;20.298;2023-02-18T11:17:35;8.00;;;3.40;;
70297;SDS011;57702;44.420;20.298;2023-02-18T11:20:17;6.63;;;3.42;;
70297;SDS011;57702;44.420;20.298;2023-02-18T11:22:44;5.22;;;3.22;;
70297;SDS011;57702;44.420;20.298;2023-02-18T11:25:21;5.55;;;2.70;;
70297;SDS011;57702;44.420;20.298;2023-02-18T11:27:49;11.90;;;2.35;;
70297;SDS011;57702;44.420;20.298;2023-02-18T11:33:20;4.15;;;2.45;;
70297;SDS011;57702;44.420;20.298;2023-02-18T11:35:48;9.80;;;3.72;;
70297;SDS011;57702;44.420;20.298;2023-02-18T11:38:22;8.05;;;1.67;;
70297;SDS011;57702;44.420;20.298;2023-02-18T11:40:55;7.60;;;2.67;;
70297;SDS011;57702;44.420;20.298;2023-02-18T11:43:22;5.68;;;3.13;;
70297;SDS011;57702;44.420;20.298;2023-02-18T11:46:06;4.95;;;2.58;;
70297;SDS011;57702;44.420;20.298;2023-02-18T11:48:33;8.38;;;1.60;;
70297;SDS011;57702;44.420;20.298;2023-02-18T11:51:00;6.20;;;1.92;;
70297;SDS011;57702;44.420;20.298;2023-02-18T11:53:27;1.45;;;1.35;;
70297;SDS011;57702;44.420;20.298;2023-02-18T11:55:55;3.15;;;1.63;;
70297;SDS011;57702;44.420;20.298;2023-02-18T11:58:22;5.13;;;1.35;;
70297;SDS011;57702;44.420;20.298;2023-02-18T12:00:49;2.35;;;2.15;;
70297;SDS011;57702;44.420;20.298;2023-02-18T12:03:26;5.70;;;1.88;;
70297;SDS011;57702;44.420;20.298;2023-02-18T12:05:59;2.30;;;2.05;;
70297;SDS011;57702;44.420;20.298;2023-02-18T12:08:27;3.35;;;2.13;;
70297;SDS011;57702;44.420;20.298;2023-02-18T12:10:54;1.67;;;1.48;;
70297;SDS011;57702;44.420;20.298;2023-02-18T12:13:31;2.35;;;1.27;;
70297;SDS011;57702;44.420;20.298;2023-02-18T12:21:15;3.08;;;1.67;;
70297;SDS011;57702;44.420;20.298;2023-02-18T12:23:52;1.95;;;1.75;;
70297;SDS011;57702;44.420;20.298;2023-02-18T12:26:27;6.70;;;2.65;;
70297;SDS011;57702;44.420;20.298;2023-02-18T12:28:58;3.10;;;1.80;;
70297;SDS011;57702;44.420;20.298;2023-02-18T12:31:38;5.40;;;2.42;;
70297;SDS011;57702;44.420;20.298;2023-02-18T12:36:49;3.88;;;1.63;;
70297;SDS011;57702;44.420;20.298;2023-02-18T12:49:34;1.13;;;1.08;;
70297;SDS011;57702;44.420;20.298;2023-02-18T12:54:36;0.95;;;0.95;;
70297;SDS011;57702;44.420;20.298;2023-02-18T12:57:30;3.25;;;1.52;;
70297;SDS011;57702;44.420;20.298;2023-02-18T13:05:31;4.78;;;2.20;;
70297;SDS011;57702;44.420;20.298;2023-02-18T13:08:05;3.20;;;2.13;;
70297;SDS011;57702;44.420;20.298;2023-02-18T13:13:18;9.35;;;2.97;;
70297;SDS011;57702;44.420;20.298;2023-02-18T13:15:47;4.28;;;1.92;;
70297;SDS011;57702;44.420;20.298;2023-02-18T13:18:25;2.45;;;1.48;;
70297;SDS011;57702;44.420;20.298;2023-02-18T13:20:54;2.22;;;1.45;;
70297;SDS011;57702;44.420;20.298;2023-02-18T13:23:23;2.50;;;1.10;;
70297;SDS011;57702;44.420;20.298;2023-02-18T13:25:54;7.32;;;1.75;;
70297;SDS011;57702;44.420;20.298;2023-02-18T13:28:24;2.72;;;1.85;;
70297;SDS011;57702;44.420;20.298;2023-02-18T13:31:13;4.45;;;1.92;;
70297;SDS011;57702;44.420;20.298;2023-02-18T13:33:52;4.93;;;1.92;;
70297;SDS011;57702;44.420;20.298;2023-02-18T13:39:06;6.68;;;1.90;;
70297;SDS011;57702;44.420;20.298;2023-02-18T13:41:38;2.25;;;1.55;;
70297;SDS011;57702;44.420;20.298;2023-02-18T13:44:08;4.43;;;1.73;;
70297;SDS011;57702;44.420;20.298;2023-02-18T13:46:53;6.15;;;1.90;;
70297;SDS011;57702;44.420;20.298;2023-02-18T13:49:24;17.05;;;2.85;;
70297;SDS011;57702;44.420;20.298;2023-02-18T13:51:52;4.22;;;2.20;;
70297;SDS011;57702;44.420;20.298;2023-02-18T13:54:37;8.15;;;3.08;;
70297;SDS011;57702;44.420;20.298;2023-02-18T13:57:12;2.83;;;1.42;;
70297;SDS011;57702;44.420;20.298;2023-02-18T14:09:56;3.28;;;1.70;;
70297;SDS011;57702;44.420;20.298;2023-02-18T14:12:34;6.97;;;2.13;;
70297;SDS011;57702;44.420;20.298;2023-02-18T14:15:28;5.55;;;2.22;;
70297;SDS011;57702;44.420;20.298;2023-02-18T14:18:08;2.25;;;1.60;;
70297;SDS011;57702;44.420;20.298;2023-02-18T14:23:16;3.17;;;1.75;;
70297;SDS011;57702;44.420;20.298;2023-02-18T14:26:42;3.33;;;1.17;;
70297;SDS011;57702;44.420;20.298;2023-02-18T14:36:23;5.38;;;0.90;;
70297;SDS011;57702;44.420;20.298;2023-02-18T14:39:04;2.28;;;1.23;;
70297;SDS011;57702;44.420;20.298;2023-02-18T14:42:10;1.48;;;0.75;;
70297;SDS011;57702;44.420;20.298;2023-02-18T14:47:05;1.63;;;1.08;;
70297;SDS011;57702;44.420;20.298;2023-02-18T14:52:05;3.85;;;1.48;;
70297;SDS011;57702;44.420;20.298;2023-02-18T14:54:36;2.40;;;1.45;;
70297;SDS011;57702;44.420;20.298;2023-02-18T14:57:05;11.35;;;1.95;;
70297;SDS011;57702;44.420;20.298;2023-02-18T14:59:39;8.30;;;2.05;;
70297;SDS011;57702;44.420;20.298;2023-02-18T15:02:19;4.22;;;1.70;;
70297;SDS011;57702;44.420;20.298;2023-02-18T15:04:46;7.35;;;3.05;;
70297;SDS011;57702;44.420;20.298;2023-02-18T15:07:17;7.63;;;3.42;;
70297;SDS011;57702;44.420;20.298;2023-02-18T15:09:43;8.38;;;2.13;;
70297;SDS011;57702;44.420;20.298;2023-02-18T15:12:11;2.35;;;2.05;;
70297;SDS011;57702;44.420;20.298;2023-02-18T15:14:39;4.55;;;1.50;;
70297;SDS011;57702;44.420;20.298;2023-02-18T15:17:11;6.20;;;2.15;;
70297;SDS011;57702;44.420;20.298;2023-02-18T15:19:40;4.35;;;1.20;;
70297;SDS011;57702;44.420;20.298;2023-02-18T15:22:13;3.20;;;2.20;;
70297;SDS011;57702;44.420;20.298;2023-02-18T15:24:40;31.35;;;6.55;;
70297;SDS011;57702;44.420;20.298;2023-02-18T15:27:17;81.47;;;15.38;;
70297;SDS011;57702;44.420;20.298;2023-02-18T15:29:43;48.10;;;12.60;;
70297;SDS011;57702;44.420;20.298;2023-02-18T15:32:19;16.83;;;5.82;;
70297;SDS011;57702;44.420;20.298;2023-02-18T15:34:47;10.20;;;3.05;;
70297;SDS011;57702;44.420;20.298;2023-02-18T15:37:14;7.60;;;3.10;;
70297;SDS011;57702;44.420;20.298;2023-02-18T15:39:41;12.98;;;3.95;;
70297;SDS011;57702;44.420;20.298;2023-02-18T15:44:55;44.78;;;7.30;;
70297;SDS011;57702;44.420;20.298;2023-02-18T15:47:21;15.13;;;5.95;;
70297;SDS011;57702;44.420;20.298;2023-02-18T15:49:49;19.85;;;5.53;;
70297;SDS011;57702;44.420;20.298;2023-02-18T15:52:22;17.13;;;5.90;;
70297;SDS011;57702;44.420;20.298;2023-02-18T15:54:48;48.67;;;7.97;;
70297;SDS011;57702;44.420;20.298;2023-02-18T15:57:15;38.33;;;5.82;;
70297;SDS011;57702;44.420;20.298;2023-02-18T15:59:45;16.23;;;4.88;;
70297;SDS011;57702;44.420;20.298;2023-02-18T16:02:19;23.77;;;3.80;;
70297;SDS011;57702;44.420;20.298;2023-02-18T16:04:56;22.05;;;4.78;;
70297;SDS011;57702;44.420;20.298;2023-02-18T16:12:33;134.85;;;23.60;;
70297;SDS011;57702;44.420;20.298;2023-02-18T16:15:01;71.90;;;14.32;;
70297;SDS011;57702;44.420;20.298;2023-02-18T16:17:29;37.08;;;9.45;;
70297;SDS011;57702;44.420;20.298;2023-02-18T16:20:00;108.00;;;19.35;;
70297;SDS011;57702;44.420;20.298;2023-02-18T16:25:07;89.30;;;16.17;;
70297;SDS011;57702;44.420;20.298;2023-02-18T16:27:46;33.95;;;11.38;;
70297;SDS011;57702;44.420;20.298;2023-02-18T16:30:21;114.47;;;22.40;;
70297;SDS011;57702;44.420;20.298;2023-02-18T16:32:49;82.22;;;20.38;;
70297;SDS011;57702;44.420;20.298;2023-02-18T16:35:16;85.63;;;15.40;;
70297;SDS011;57702;44.420;20.298;2023-02-18T16:37:44;41.47;;;12.10;;
70297;SDS011;57702;44.420;20.298;2023-02-18T16:40:23;31.13;;;10.07;;
70297;SDS011;57702;44.420;20.298;2023-02-18T16:42:51;21.45;;;8.23;;